createdAt,value
2019-02-27T04:19:05.732Z,8.40
2019-02-27T04:21:37.527Z,8.03
2019-02-27T04:24:08.476Z,8.90
2019-02-27T04:26:42.013Z,8.33
2019-02-27T04:29:11.983Z,8.00
2019-02-27T04:31:42.876Z,8.03
2019-02-27T04:34:13.863Z,8.00
2019-02-27T04:36:47.149Z,8.10
2019-02-27T04:39:17.427Z,7.53
2019-02-27T04:41:49.548Z,8.80
2019-02-27T04:44:20.950Z,8.50
2019-02-27T04:46:54.836Z,9.10
2019-02-27T04:49:25.332Z,9.70
2019-02-27T04:51:56.228Z,10.20
2019-02-27T04:54:27.164Z,11.30
2019-02-27T04:56:58.179Z,11.97
2019-02-27T04:59:29.709Z,16.03
2019-02-27T05:02:00.632Z,14.03
2019-02-27T05:04:34.958Z,15.30
2019-02-27T05:07:04.263Z,14.90
2019-02-27T05:09:35.180Z,14.47
2019-02-27T05:12:06.091Z,16.43
2019-02-27T05:14:37.037Z,16.17
2019-02-27T05:17:07.948Z,18.03
2019-02-27T05:19:40.488Z,19.37
2019-02-27T05:22:11.390Z,22.43
2019-02-27T05:24:42.327Z,24.93
2019-02-27T05:27:13.218Z,18.43
2019-02-27T05:29:44.070Z,15.40
2019-02-27T05:32:14.979Z,16.00
2019-02-27T05:34:49.812Z,17.83
2019-02-27T05:37:19.470Z,17.07
2019-02-27T05:39:51.143Z,16.80
2019-02-27T05:42:22.826Z,17.47
2019-02-27T05:44:55.876Z,18.80
2019-02-27T05:47:26.383Z,18.37
2019-02-27T05:49:57.978Z,26.70
2019-02-27T05:52:30.030Z,44.37
2019-02-27T05:55:00.960Z,36.30
2019-02-27T05:57:31.867Z,44.33
2019-02-27T06:00:03.435Z,43.53
2019-02-27T06:02:34.496Z,33.77
2019-02-27T06:05:06.354Z,21.53
2019-02-27T06:07:37.263Z,20.00
2019-02-27T06:10:19.807Z,23.60
2019-02-27T06:12:47.635Z,23.17
2019-02-27T06:15:19.062Z,27.70
2019-02-27T06:17:50.012Z,28.33
2019-02-27T06:20:22.647Z,29.50
2019-02-27T06:22:53.550Z,29.03
2019-02-27T06:25:24.493Z,29.47
2019-02-27T06:27:55.394Z,32.97
2019-02-27T06:30:27.904Z,27.83
2019-02-27T06:32:58.936Z,29.90
2019-02-27T06:35:33.506Z,31.17
2019-02-27T06:38:02.517Z,25.43
2019-02-27T06:40:33.453Z,24.27
2019-02-27T06:43:04.355Z,24.63
2019-02-27T06:45:35.306Z,25.17
2019-02-27T06:48:09.504Z,21.77
2019-02-27T06:50:38.876Z,24.30
2019-02-27T06:53:09.768Z,23.23
2019-02-27T06:55:40.706Z,24.73
2019-02-27T06:58:14.501Z,25.13
2019-02-27T07:00:44.327Z,24.97
2019-02-27T07:03:15.225Z,25.80
2019-02-27T07:05:48.138Z,27.77
2019-02-27T07:08:18.800Z,25.83
2019-02-27T07:10:49.738Z,24.27
2019-02-27T07:13:21.627Z,23.77
2019-02-27T07:15:52.660Z,23.47
2019-02-27T07:18:23.565Z,21.80
2019-02-27T07:20:58.279Z,20.13
2019-02-27T07:23:28.982Z,19.23
2019-02-27T07:25:59.921Z,19.00
2019-02-27T07:28:30.858Z,20.10
2019-02-27T07:31:01.782Z,18.43
2019-02-27T07:33:32.681Z,19.27
2019-02-27T07:36:04.491Z,18.80
2019-02-27T07:38:35.385Z,18.53
2019-02-27T07:41:06.319Z,45.40
2019-02-27T07:43:37.305Z,31.93
2019-02-27T07:46:08.236Z,21.73
2019-02-27T07:48:39.142Z,22.10
2019-02-27T07:51:10.916Z,23.93
2019-02-27T07:53:41.821Z,21.12
2019-02-27T07:56:12.796Z,21.20
2019-02-27T07:58:43.693Z,19.50
2019-02-27T08:01:14.621Z,20.47
2019-02-27T08:03:45.806Z,20.03
2019-02-27T08:06:17.646Z,18.43
2019-02-27T08:08:48.542Z,18.73
2019-02-27T08:11:19.482Z,18.48
2019-02-27T08:13:50.390Z,19.35
2019-02-27T08:16:21.949Z,19.35
2019-02-27T08:18:53.503Z,18.92
2019-02-27T08:21:27.796Z,20.10
2019-02-27T08:24:06.515Z,18.73
2019-02-27T08:26:32.973Z,21.20
2019-02-27T08:29:03.891Z,19.55
2019-02-27T08:31:34.820Z,19.52
2019-02-27T08:34:05.730Z,21.20
2019-02-27T08:36:36.680Z,20.73
2019-02-27T08:39:07.598Z,20.62
2019-02-27T08:41:38.538Z,21.10
2019-02-27T08:44:12.335Z,21.97
2019-02-27T08:46:42.090Z,27.85
2019-02-27T08:49:13.002Z,23.85
2019-02-27T08:51:44.332Z,23.30
2019-02-27T08:54:15.246Z,23.27
2019-02-27T08:56:47.209Z,26.80
2019-02-27T08:59:18.872Z,24.80
2019-02-27T09:01:49.816Z,24.73
2019-02-27T09:04:20.742Z,25.72
2019-02-27T09:06:51.715Z,28.07
2019-02-27T09:09:22.642Z,27.73
2019-02-27T09:11:53.576Z,28.67
2019-02-27T09:14:24.491Z,28.55
2019-02-27T09:16:55.463Z,28.05
2019-02-27T09:19:26.381Z,31.10
2019-02-27T09:21:59.982Z,34.58
2019-02-27T09:24:31.632Z,31.60
2019-02-27T09:27:02.645Z,33.90
2019-02-27T09:29:33.621Z,33.17
2019-02-27T09:32:04.636Z,38.75
2019-02-27T09:34:35.621Z,40.08
2019-02-27T09:37:08.252Z,35.48
2019-02-27T09:39:39.170Z,36.48
2019-02-27T09:42:10.111Z,38.78
2019-02-27T09:44:41.020Z,34.40
2019-02-27T09:47:11.965Z,34.33
2019-02-27T09:49:42.873Z,34.97
2019-02-27T09:52:13.925Z,34.20
2019-02-27T09:54:46.964Z,32.48
2019-02-27T09:57:17.471Z,34.15
2019-02-27T09:59:50.990Z,33.65
2019-02-27T10:02:21.029Z,32.50
2019-02-27T10:04:51.937Z,32.73
2019-02-27T10:07:23.701Z,33.28
2019-02-27T10:09:54.609Z,35.00
2019-02-27T10:12:27.787Z,33.00
2019-02-27T10:14:58.159Z,41.08
2019-02-27T10:17:29.105Z,33.92
2019-02-27T10:20:02.520Z,35.63
2019-02-27T10:22:34.435Z,34.65
2019-02-27T10:25:08.597Z,35.48
2019-02-27T10:27:39.179Z,36.35
2019-02-27T10:30:16.637Z,35.25
2019-02-27T10:32:47.430Z,32.33
2019-02-27T10:35:18.344Z,31.85
2019-02-27T10:37:52.313Z,31.87
2019-02-27T10:40:24.456Z,32.03
2019-02-27T10:42:55.400Z,31.33
2019-02-27T10:45:26.308Z,31.52
2019-02-27T10:47:57.250Z,30.40
2019-02-27T10:50:28.160Z,31.12
2019-02-27T10:53:00.062Z,31.42
2019-02-27T10:55:31.553Z,31.65
2019-02-27T10:58:02.510Z,30.50
2019-02-27T11:00:33.838Z,30.27
2019-02-27T11:03:04.764Z,30.57
2019-02-27T11:05:39.298Z,28.35
2019-02-27T11:08:11.723Z,30.70
2019-02-27T11:10:42.650Z,30.45
2019-02-27T11:13:13.655Z,31.05
2019-02-27T11:15:45.407Z,31.60
2019-02-27T11:18:16.462Z,30.52
2019-02-27T11:20:47.379Z,32.80
2019-02-27T11:23:19.154Z,33.02
2019-02-27T11:25:50.072Z,31.25
2019-02-27T11:28:20.998Z,33.85
2019-02-27T11:30:51.980Z,32.38
2019-02-27T11:33:25.956Z,30.27
2019-02-27T11:35:55.572Z,29.87
2019-02-27T11:38:28.845Z,30.65
2019-02-27T11:40:59.761Z,32.08
2019-02-27T11:43:30.699Z,31.45
2019-02-27T11:46:01.616Z,31.42
2019-02-27T11:48:32.634Z,29.18
2019-02-27T11:51:03.549Z,31.93
2019-02-27T11:53:36.523Z,30.17
2019-02-27T11:56:07.616Z,29.15
2019-02-27T11:58:39.298Z,29.32
2019-02-27T12:01:12.103Z,28.25
2019-02-27T12:03:45.779Z,28.40
2019-02-27T12:06:16.554Z,29.50
2019-02-27T12:08:48.302Z,27.85
2019-02-27T12:11:19.280Z,26.25
2019-02-27T12:13:51.810Z,26.60
2019-02-27T12:16:22.798Z,28.70
2019-02-27T12:18:53.803Z,28.62
2019-02-27T12:21:26.201Z,27.58
2019-02-27T12:23:57.268Z,28.70
2019-02-27T12:26:28.340Z,29.50
2019-02-27T12:28:59.237Z,28.83
2019-02-27T12:31:30.170Z,27.87
2019-02-27T12:34:03.347Z,28.25
2019-02-27T12:36:33.729Z,26.30
2019-02-27T12:39:06.294Z,25.92
2019-02-27T12:41:38.294Z,27.70
2019-02-27T12:44:09.534Z,25.97
2019-02-27T12:46:40.429Z,26.37
2019-02-27T12:49:13.346Z,23.85
2019-02-27T12:51:44.432Z,26.10
2019-02-27T12:54:15.379Z,26.00
2019-02-27T12:56:47.354Z,25.62
2019-02-27T12:59:18.275Z,26.73
2019-02-27T13:01:51.629Z,23.15
2019-02-27T13:04:21.897Z,24.72
2019-02-27T13:06:52.907Z,26.60
2019-02-27T13:09:24.553Z,24.60
2019-02-27T13:11:57.156Z,24.27
2019-02-27T13:14:28.079Z,30.77
2019-02-27T13:16:59.055Z,25.57
2019-02-27T13:19:29.964Z,27.95
2019-02-27T13:22:00.924Z,38.38
2019-02-27T13:24:31.811Z,28.55
2019-02-27T13:27:03.792Z,30.85
2019-02-27T13:29:36.339Z,30.72
2019-02-27T13:32:07.275Z,27.02
2019-02-27T13:34:38.196Z,24.82
2019-02-27T13:37:10.072Z,22.75
2019-02-27T13:39:41.339Z,21.02
2019-02-27T13:42:13.320Z,20.00
2019-02-27T13:44:44.235Z,24.65
2019-02-27T13:47:15.210Z,29.85
2019-02-27T13:49:47.364Z,24.07
2019-02-27T13:52:18.766Z,27.67
2019-02-27T13:54:49.679Z,31.73
2019-02-27T13:57:24.832Z,25.85
2019-02-27T13:59:53.275Z,23.98
2019-02-27T14:02:24.238Z,22.45
2019-02-27T14:04:57.038Z,21.85
2019-02-27T14:07:27.860Z,20.52
2019-02-27T14:09:58.845Z,19.90
2019-02-27T14:12:33.175Z,21.60
2019-02-27T14:15:03.331Z,18.92
2019-02-27T14:17:34.273Z,17.67
2019-02-27T14:20:19.218Z,19.82
2019-02-27T14:22:50.161Z,19.00
2019-02-27T14:25:23.077Z,20.10
2019-02-27T14:27:54.933Z,19.87
2019-02-27T14:30:45.954Z,20.20
2019-02-27T14:33:19.466Z,18.42
2019-02-27T14:35:50.889Z,19.75
2019-02-27T14:38:22.902Z,18.52
2019-02-27T14:40:54.645Z,21.02
2019-02-27T14:43:27.328Z,18.50
2019-02-27T14:45:58.317Z,20.90
2019-02-27T14:48:29.284Z,19.35
2019-02-27T14:51:00.235Z,18.35
2019-02-27T14:53:31.238Z,18.65
2019-02-27T14:56:02.191Z,18.30
2019-02-27T14:58:34.100Z,19.52
2019-02-27T15:01:07.037Z,18.65
2019-02-27T15:03:38.092Z,20.72
2019-02-27T15:06:09.106Z,21.60
2019-02-27T15:08:40.158Z,20.45
2019-02-27T15:11:14.037Z,19.30
2019-02-27T15:13:44.881Z,21.90
2019-02-27T15:16:16.397Z,20.20
2019-02-27T15:18:47.425Z,20.43
2019-02-27T15:21:18.339Z,19.55
2019-02-27T15:23:50.087Z,19.80
2019-02-27T15:26:21.822Z,19.02
2019-02-27T15:28:53.577Z,21.02
2019-02-27T15:31:24.483Z,17.50
2019-02-27T15:33:55.445Z,24.40
2019-02-27T15:36:29.470Z,24.00
2019-02-27T15:38:58.990Z,19.42
2019-02-27T15:41:29.906Z,21.80
2019-02-27T15:44:01.675Z,23.07
2019-02-27T15:46:32.605Z,23.10
2019-02-27T15:49:03.545Z,23.40
2019-02-27T15:51:34.467Z,23.47
2019-02-27T15:54:05.412Z,24.37
2019-02-27T15:56:41.023Z,25.00
2019-02-27T15:59:10.665Z,24.90
2019-02-27T16:01:41.585Z,22.33
2019-02-27T16:04:12.529Z,25.05
2019-02-27T16:06:43.439Z,24.20
2019-02-27T16:09:15.413Z,26.90
2019-02-27T16:11:48.129Z,22.57
2019-02-27T16:14:19.061Z,25.93
2019-02-27T16:16:49.986Z,25.67
2019-02-27T16:19:21.081Z,27.58
2019-02-27T16:21:56.811Z,27.07
2019-02-27T16:24:24.642Z,25.60
2019-02-27T16:26:57.962Z,23.70
2019-02-27T16:29:30.926Z,21.77
2019-02-27T16:32:01.823Z,23.30
2019-02-27T16:34:33.898Z,22.70
2019-02-27T16:37:05.015Z,24.67
2019-02-27T16:39:40.871Z,25.17
2019-02-27T16:42:08.619Z,26.60
2019-02-27T16:44:40.451Z,25.40
2019-02-27T16:47:11.360Z,25.30
2019-02-27T16:49:42.283Z,26.47
2019-02-27T16:52:13.199Z,26.73
2019-02-27T16:54:44.301Z,25.90
2019-02-27T16:57:15.209Z,28.73
2019-02-27T16:59:47.777Z,30.67
2019-02-27T17:02:18.742Z,27.57
2019-02-27T17:05:01.725Z,33.00
2019-02-27T17:07:32.746Z,30.47
2019-02-27T17:10:04.553Z,31.20
2019-02-27T17:12:38.211Z,42.40
2019-02-27T17:15:08.281Z,37.37
2019-02-27T17:17:40.070Z,37.07
2019-02-27T17:20:19.538Z,57.60
2019-02-27T17:22:50.466Z,35.00
2019-02-27T17:25:21.367Z,32.83
2019-02-27T17:27:53.558Z,29.20
2019-02-27T17:30:27.398Z,34.43
2019-02-27T17:33:01.366Z,47.30
2019-02-27T17:35:33.463Z,32.57
2019-02-27T17:38:04.403Z,31.40
2019-02-27T17:40:37.489Z,33.00
2019-02-27T17:43:08.710Z,30.37
2019-02-27T17:45:39.640Z,35.23
2019-02-27T17:48:12.443Z,29.73
2019-02-27T17:50:44.109Z,30.40
2019-02-27T17:53:15.151Z,29.57
2019-02-27T17:55:48.940Z,33.50
2019-02-27T17:58:20.440Z,34.30
2019-02-27T18:00:57.555Z,33.07
2019-02-27T18:03:29.621Z,32.53
2019-02-27T18:06:00.570Z,29.27
2019-02-27T18:08:31.780Z,31.43
2019-02-27T18:11:02.751Z,31.67
2019-02-27T18:13:36.195Z,38.03
2019-02-27T18:16:06.381Z,35.33
2019-02-27T18:18:43.139Z,36.07
2019-02-27T18:21:11.796Z,29.23
2019-02-27T18:23:42.780Z,32.07
2019-02-27T18:26:15.733Z,37.73
2019-02-27T18:28:48.273Z,33.90
2019-02-27T18:31:19.272Z,30.93
2019-02-27T18:33:50.362Z,29.97
2019-02-27T18:36:21.305Z,31.77
2019-02-27T18:38:52.400Z,30.50
2019-02-27T18:41:23.323Z,34.40
2019-02-27T18:43:54.283Z,31.47
2019-02-27T18:46:25.532Z,32.13
2019-02-27T18:48:57.410Z,31.90
2019-02-27T18:51:29.977Z,31.93
2019-02-27T18:54:02.756Z,39.20
2019-02-27T18:56:36.922Z,32.43
2019-02-27T18:59:06.618Z,31.00
2019-02-27T19:01:45.162Z,32.23
2019-02-27T19:04:15.554Z,33.13
2019-02-27T19:06:47.020Z,36.77
2019-02-27T19:09:18.236Z,34.23
2019-02-27T19:11:50.955Z,33.27
2019-02-27T19:14:21.936Z,31.53
2019-02-27T19:16:54.970Z,32.60
2019-02-27T19:19:26.481Z,32.23
2019-02-27T19:21:57.990Z,29.50
2019-02-27T19:24:29.068Z,33.67
2019-02-27T19:27:00.078Z,33.73
2019-02-27T19:29:32.759Z,32.77
2019-02-27T19:32:03.769Z,29.73
2019-02-27T19:34:35.613Z,31.47
2019-02-27T19:37:06.642Z,31.00
2019-02-27T19:39:39.347Z,30.30
2019-02-27T19:42:13.109Z,29.80
2019-02-27T19:44:43.094Z,33.17
2019-02-27T19:47:14.025Z,31.70
2019-02-27T19:49:48.009Z,32.67
2019-02-27T19:52:18.979Z,31.53
2019-02-27T19:54:52.847Z,33.33
2019-02-27T19:57:23.954Z,34.37
2019-02-27T19:59:58.799Z,36.67
2019-02-27T20:02:27.518Z,31.43
2019-02-27T20:04:58.478Z,28.00
2019-02-27T20:07:29.395Z,28.53
2019-02-27T20:10:00.439Z,28.33
2019-02-27T20:12:31.429Z,26.73
2019-02-27T20:15:02.351Z,27.13
2019-02-27T20:17:33.255Z,26.13
2019-02-27T20:20:05.774Z,25.57
2019-02-27T20:22:36.663Z,26.67
2019-02-27T20:25:10.709Z,27.63
2019-02-27T20:27:42.429Z,27.87
2019-02-27T20:30:22.351Z,27.33
2019-02-27T20:32:53.458Z,27.17
2019-02-27T20:35:25.525Z,25.53
2019-02-27T20:37:56.440Z,27.93
2019-02-27T20:40:27.925Z,26.40
2019-02-27T20:42:58.984Z,29.60
2019-02-27T20:45:29.995Z,25.97
2019-02-27T20:48:02.055Z,27.60
2019-02-27T20:50:42.586Z,26.53
2019-02-27T20:53:14.869Z,26.17
2019-02-27T20:55:45.812Z,29.30
2019-02-27T20:58:17.537Z,28.27
2019-02-27T21:00:48.625Z,28.80
2019-02-27T21:03:19.533Z,28.83
2019-02-27T21:05:51.445Z,29.30
2019-02-27T21:08:22.462Z,28.97
2019-02-27T21:10:55.309Z,29.03
2019-02-27T21:13:26.096Z,29.57
2019-02-27T21:15:57.108Z,29.43
2019-02-27T21:18:29.085Z,28.10
2019-02-27T21:21:01.570Z,28.07
2019-02-27T21:23:33.048Z,28.70
2019-02-27T21:26:03.989Z,27.80
2019-02-27T21:28:34.901Z,29.13
2019-02-27T21:31:06.627Z,29.73
2019-02-27T21:33:37.537Z,29.53
2019-02-27T21:36:09.460Z,29.23
2019-02-27T21:38:40.373Z,29.93
2019-02-27T21:41:12.432Z,29.53
2019-02-27T21:43:43.489Z,30.00
2019-02-27T21:46:14.428Z,29.97
2019-02-27T21:48:45.352Z,29.10
2019-02-27T21:51:17.234Z,29.23
2019-02-27T21:53:48.154Z,28.60
2019-02-27T21:56:19.118Z,29.10
2019-02-27T21:58:50.036Z,29.20
2019-02-27T22:01:22.017Z,30.53
2019-02-27T22:03:53.485Z,31.60
2019-02-27T22:06:27.449Z,30.63
2019-02-27T22:08:57.831Z,30.30
2019-02-27T22:11:28.762Z,30.67
2019-02-27T22:13:59.675Z,30.90
2019-02-27T22:16:31.485Z,29.83
2019-02-27T22:19:02.387Z,30.63
2019-02-27T22:21:34.844Z,30.50
2019-02-27T22:24:05.748Z,30.63
2019-02-27T22:26:37.409Z,30.23
2019-02-27T22:29:09.362Z,31.47
2019-02-27T22:31:41.257Z,30.17
2019-02-27T22:34:12.376Z,32.83
2019-02-27T22:36:45.127Z,29.50
2019-02-27T22:39:16.133Z,32.03
2019-02-27T22:41:47.139Z,32.37
2019-02-27T22:44:18.052Z,31.70
2019-02-27T22:46:49.004Z,31.70
2019-02-27T22:49:19.955Z,29.77
2019-02-27T22:51:51.889Z,30.60
2019-02-27T22:54:22.826Z,29.57
2019-02-27T22:56:53.853Z,30.43
2019-02-27T22:59:24.792Z,29.97
2019-02-27T23:01:55.847Z,28.93
2019-02-27T23:04:30.017Z,30.00
2019-02-27T23:06:59.967Z,30.30
2019-02-27T23:09:31.370Z,29.70
2019-02-27T23:12:02.472Z,30.73
2019-02-27T23:14:33.410Z,31.17
2019-02-27T23:17:04.513Z,33.70
2019-02-27T23:19:35.559Z,33.30
2019-02-27T23:22:08.283Z,33.77
2019-02-27T23:24:43.703Z,34.20
2019-02-27T23:27:11.809Z,34.13
2019-02-27T23:29:42.716Z,33.40
2019-02-27T23:32:14.452Z,32.90
2019-02-27T23:34:45.362Z,31.13
2019-02-27T23:37:17.263Z,31.63
2019-02-27T23:39:48.165Z,30.50
2019-02-27T23:42:19.106Z,32.27
2019-02-27T23:44:50.017Z,31.50
2019-02-27T23:47:20.957Z,30.67
2019-02-27T23:49:51.803Z,32.20
2019-02-27T23:52:23.511Z,31.57
2019-02-27T23:54:54.396Z,32.57
2019-02-27T23:57:25.317Z,30.13
2019-02-27T23:59:56.237Z,31.23
